createdAt,value
2023-01-21T00:00:58.314Z,-2.34
2023-01-21T00:01:58.591Z,-2.36
2023-01-21T00:02:58.554Z,-2.37
2023-01-21T00:03:58.685Z,-2.37
2023-01-21T00:04:58.777Z,-2.36
2023-01-21T00:05:58.895Z,-2.35
2023-01-21T00:06:59.022Z,-2.35
2023-01-21T00:08:01.757Z,-2.34
2023-01-21T00:08:59.219Z,-2.33
2023-01-21T00:09:59.335Z,-2.33
2023-01-21T00:10:59.436Z,-2.33
2023-01-21T00:11:59.551Z,-2.33
2023-01-21T00:12:59.684Z,-2.33
2023-01-21T00:13:59.770Z,-2.33
2023-01-21T00:14:59.870Z,-2.33
2023-01-21T00:16:00.015Z,-2.35
2023-01-21T00:17:00.128Z,-2.36
2023-01-21T00:18:00.248Z,-2.38
2023-01-21T00:19:00.334Z,-2.40
2023-01-21T00:20:00.460Z,-2.43
2023-01-21T00:21:00.585Z,-2.45
2023-01-21T00:22:00.697Z,-2.47
2023-01-21T00:23:00.796Z,-2.49
2023-01-21T00:24:00.893Z,-2.52
2023-01-21T00:25:01.026Z,-2.55
2023-01-21T00:26:01.144Z,-2.58
2023-01-21T00:27:01.267Z,-2.59
2023-01-21T00:28:01.416Z,-2.61
2023-01-21T00:29:01.485Z,-2.63
2023-01-21T00:30:01.592Z,-2.66
2023-01-21T00:31:01.765Z,-2.68
2023-01-21T00:32:01.828Z,-2.69
2023-01-21T00:33:01.924Z,-2.71
2023-01-21T00:34:02.034Z,-2.72
2023-01-21T00:35:02.178Z,-2.72
2023-01-21T00:36:02.275Z,-2.73
2023-01-21T00:37:02.372Z,-2.74
2023-01-21T00:38:02.486Z,-2.75
2023-01-21T00:39:02.583Z,-2.77
2023-01-21T00:40:02.722Z,-2.78
2023-01-21T00:41:02.804Z,-2.80
2023-01-21T00:42:02.933Z,-2.82
2023-01-21T00:43:03.032Z,-2.84
2023-01-21T00:44:03.133Z,-2.86
2023-01-21T00:45:03.238Z,-2.87
2023-01-21T00:46:03.386Z,-2.89
2023-01-21T00:47:03.527Z,-2.89
2023-01-21T00:48:03.634Z,-2.89
2023-01-21T00:49:03.728Z,-2.90
2023-01-21T00:50:03.816Z,-2.91
2023-01-21T00:51:03.974Z,-2.92
2023-01-21T00:52:04.077Z,-2.92
2023-01-21T00:53:04.180Z,-2.93
2023-01-21T00:54:04.270Z,-2.93
2023-01-21T00:55:04.382Z,-2.93
2023-01-21T00:56:04.503Z,-2.93
2023-01-21T00:57:04.608Z,-2.92
2023-01-21T00:58:04.711Z,-2.92
2023-01-21T00:59:04.824Z,-2.94
2023-01-21T01:00:04.931Z,-2.95
2023-01-21T01:01:05.050Z,-2.95
2023-01-21T01:02:05.157Z,-2.95
2023-01-21T01:03:05.256Z,-2.96
2023-01-21T01:04:05.368Z,-2.98
2023-01-21T01:05:05.464Z,-3.00
2023-01-21T01:06:05.584Z,-3.01
2023-01-21T01:07:05.701Z,-3.02
2023-01-21T01:08:05.792Z,-3.03
2023-01-21T01:09:05.911Z,-3.04
2023-01-21T01:10:06.012Z,-3.05
2023-01-21T01:11:06.134Z,-3.06
2023-01-21T01:12:06.241Z,-3.08
2023-01-21T01:13:06.350Z,-3.10
2023-01-21T01:14:06.444Z,-3.12
2023-01-21T01:15:14.543Z,-3.14
2023-01-21T01:16:06.715Z,-3.16
2023-01-21T01:17:06.828Z,-3.18
2023-01-21T01:18:06.896Z,-3.20
2023-01-21T01:19:07.019Z,-3.23
2023-01-21T01:20:07.126Z,-3.26
2023-01-21T01:21:07.284Z,-3.28
2023-01-21T01:22:07.332Z,-3.30
2023-01-21T01:23:07.445Z,-3.32
2023-01-21T01:24:07.577Z,-3.34
2023-01-21T01:25:07.809Z,-3.36
2023-01-21T01:26:07.830Z,-3.37
2023-01-21T01:27:07.921Z,-3.38
2023-01-21T01:28:08.040Z,-3.38
2023-01-21T01:29:08.163Z,-3.38
2023-01-21T01:30:08.273Z,-3.38
2023-01-21T01:31:08.474Z,-3.39
2023-01-21T01:32:08.487Z,-3.39
2023-01-21T01:33:08.588Z,-3.39
2023-01-21T01:34:08.688Z,-3.39
2023-01-21T01:35:08.812Z,-3.39
2023-01-21T01:36:08.945Z,-3.39
2023-01-21T01:37:09.036Z,-3.38
2023-01-21T01:38:09.157Z,-3.38
2023-01-21T01:39:09.271Z,-3.38
2023-01-21T01:40:09.383Z,-3.39
2023-01-21T01:41:09.495Z,-3.40
2023-01-21T01:42:09.594Z,-3.41
2023-01-21T01:43:09.694Z,-3.41
2023-01-21T01:44:09.815Z,-3.41
2023-01-21T01:45:09.955Z,-3.41
2023-01-21T01:46:10.078Z,-3.42
2023-01-21T01:47:10.152Z,-3.42
2023-01-21T01:48:10.271Z,-3.43
2023-01-21T01:49:10.372Z,-3.44
2023-01-21T01:50:10.515Z,-3.44
2023-01-21T01:51:10.702Z,-3.45
2023-01-21T01:52:10.750Z,-3.47
2023-01-21T01:53:10.850Z,-3.49
2023-01-21T01:54:10.961Z,-3.51
2023-01-21T01:55:11.127Z,-3.51
2023-01-21T01:56:11.212Z,-3.52
2023-01-21T01:57:11.285Z,-3.52
2023-01-21T01:58:11.388Z,-3.52
2023-01-21T01:59:11.504Z,-3.52
2023-01-21T02:00:12.180Z,-3.52
2023-01-21T02:01:11.747Z,-3.52
2023-01-21T02:02:11.857Z,-3.52
2023-01-21T02:03:11.995Z,-3.52
2023-01-21T02:04:12.086Z,-3.51
2023-01-21T02:05:12.188Z,-3.51
2023-01-21T02:06:12.309Z,-3.52
2023-01-21T02:07:12.434Z,-3.52
2023-01-21T02:08:12.541Z,-3.53
2023-01-21T02:09:12.654Z,-3.54
2023-01-21T02:10:12.757Z,-3.54
2023-01-21T02:11:12.892Z,-3.53
2023-01-21T02:12:12.993Z,-3.53
2023-01-21T02:13:13.143Z,-3.54
2023-01-21T02:14:13.255Z,-3.54
2023-01-21T02:15:13.364Z,-3.54
2023-01-21T02:16:13.564Z,-3.54
2023-01-21T02:17:13.599Z,-3.54
2023-01-21T02:18:13.707Z,-3.54
2023-01-21T02:19:13.816Z,-3.54
2023-01-21T02:20:14.170Z,-3.54
2023-01-21T02:21:14.062Z,-3.54
2023-01-21T02:22:14.144Z,-3.55
2023-01-21T02:23:14.239Z,-3.55
2023-01-21T02:24:14.359Z,-3.55
2023-01-21T02:25:14.459Z,-3.55
2023-01-21T02:26:14.589Z,-3.56
2023-01-21T02:27:14.688Z,-3.56
2023-01-21T02:28:14.815Z,-3.57
2023-01-21T02:29:14.897Z,-3.57
2023-01-21T02:30:15.300Z,-3.57
2023-01-21T02:31:15.313Z,-3.57
2023-01-21T02:32:15.226Z,-3.57
2023-01-21T02:33:15.380Z,-3.57
2023-01-21T02:34:15.478Z,-3.57
2023-01-21T02:35:15.589Z,-3.57
2023-01-21T02:36:15.737Z,-3.56
2023-01-21T02:37:15.803Z,-3.56
2023-01-21T02:38:15.944Z,-3.56
2023-01-21T02:39:16.035Z,-3.55
2023-01-21T02:40:16.473Z,-3.55
2023-01-21T02:41:16.296Z,-3.56
2023-01-21T02:42:16.405Z,-3.57
2023-01-21T02:43:16.466Z,-3.57
2023-01-21T02:44:16.567Z,-3.58
2023-01-21T02:45:16.683Z,-3.59
2023-01-21T02:46:16.883Z,-3.60
2023-01-21T02:47:16.947Z,-3.62
2023-01-21T02:48:17.051Z,-3.63
2023-01-21T02:49:17.150Z,-3.64
2023-01-21T02:50:17.444Z,-3.65
2023-01-21T02:51:17.494Z,-3.65
2023-01-21T02:52:17.479Z,-3.65
2023-01-21T02:53:17.610Z,-3.66
2023-01-21T02:54:17.718Z,-3.66
2023-01-21T02:55:17.809Z,-3.65
2023-01-21T02:56:17.945Z,-3.65
2023-01-21T02:57:18.090Z,-3.66
2023-01-21T02:58:18.150Z,-3.67
2023-01-21T02:59:18.271Z,-3.68
2023-01-21T03:00:18.719Z,-3.68
2023-01-21T03:01:18.468Z,-3.69
2023-01-21T03:02:18.705Z,-3.69
2023-01-21T03:03:18.715Z,-3.69
2023-01-21T03:04:18.815Z,-3.68
2023-01-21T03:05:18.985Z,-3.68
2023-01-21T03:06:19.014Z,-3.68
2023-01-21T03:07:19.146Z,-3.68
2023-01-21T03:08:19.253Z,-3.69
2023-01-21T03:09:19.392Z,-3.69
2023-01-21T03:10:19.491Z,-3.70
2023-01-21T03:11:19.588Z,-3.70
2023-01-21T03:12:19.723Z,-3.70
2023-01-21T03:13:19.832Z,-3.70
2023-01-21T03:14:19.903Z,-3.70
2023-01-21T03:15:20.014Z,-3.70
2023-01-21T03:16:20.240Z,-3.70
2023-01-21T03:17:20.285Z,-3.71
2023-01-21T03:18:20.424Z,-3.71
2023-01-21T03:19:20.505Z,-3.72
2023-01-21T03:20:20.679Z,-3.72
2023-01-21T03:21:20.755Z,-3.73
2023-01-21T03:22:20.818Z,-3.73
2023-01-21T03:23:20.934Z,-3.75
2023-01-21T03:24:21.032Z,-3.75
2023-01-21T03:25:21.148Z,-3.76
2023-01-21T03:26:21.271Z,-3.76
2023-01-21T03:27:21.376Z,-3.76
2023-01-21T03:28:21.500Z,-3.76
2023-01-21T03:29:21.583Z,-3.77
2023-01-21T03:30:21.697Z,-3.78
2023-01-21T03:31:21.845Z,-3.79
2023-01-21T03:32:21.919Z,-3.79
2023-01-21T03:33:22.026Z,-3.79
2023-01-21T03:34:22.172Z,-3.80
2023-01-21T03:35:22.261Z,-3.80
2023-01-21T03:36:22.373Z,-3.81
2023-01-21T03:37:22.474Z,-3.83
2023-01-21T03:38:22.594Z,-3.84
2023-01-21T03:39:22.684Z,-3.86
2023-01-21T03:40:22.829Z,-3.89
2023-01-21T03:41:22.976Z,-3.90
2023-01-21T03:42:23.024Z,-3.93
2023-01-21T03:43:23.174Z,-3.95
2023-01-21T03:44:23.295Z,-3.98
2023-01-21T03:45:23.407Z,-4.00
2023-01-21T03:46:23.572Z,-4.02
2023-01-21T03:47:23.631Z,-4.02
2023-01-21T03:48:23.763Z,-4.03
2023-01-21T03:49:23.883Z,-4.05
2023-01-21T03:50:24.020Z,-4.05
2023-01-21T03:51:24.188Z,-4.06
2023-01-21T03:52:24.238Z,-4.06
2023-01-21T03:53:24.366Z,-4.06
2023-01-21T03:54:24.460Z,-4.06
2023-01-21T03:55:24.588Z,-4.07
2023-01-21T03:56:24.743Z,-4.09
2023-01-21T03:57:24.776Z,-4.10
2023-01-21T03:58:24.929Z,-4.11
2023-01-21T03:59:25.004Z,-4.11
2023-01-21T04:00:25.124Z,-4.12
2023-01-21T04:01:25.257Z,-4.13
2023-01-21T04:02:25.341Z,-4.13
2023-01-21T04:03:25.493Z,-4.12
2023-01-21T04:04:25.544Z,-4.12
2023-01-21T04:05:25.661Z,-4.12
2023-01-21T04:06:25.827Z,-4.13
2023-01-21T04:07:25.883Z,-4.14
2023-01-21T04:08:26.018Z,-4.15
2023-01-21T04:09:26.093Z,-4.14
2023-01-21T04:10:26.202Z,-4.15
2023-01-21T04:11:26.341Z,-4.15
2023-01-21T04:12:26.447Z,-4.14
2023-01-21T04:13:26.555Z,-4.13
2023-01-21T04:14:26.653Z,-4.13
2023-01-21T04:15:26.771Z,-4.13
2023-01-21T04:16:26.933Z,-4.13
2023-01-21T04:17:27.040Z,-4.14
2023-01-21T04:18:27.104Z,-4.15
2023-01-21T04:19:27.222Z,-4.15
2023-01-21T04:20:27.346Z,-4.15
2023-01-21T04:21:27.592Z,-4.14
2023-01-21T04:22:27.534Z,-4.15
2023-01-21T04:23:27.638Z,-4.15
2023-01-21T04:24:27.757Z,-4.14
2023-01-21T04:25:27.877Z,-4.14
2023-01-21T04:26:28.051Z,-4.14
2023-01-21T04:27:28.096Z,-4.13
2023-01-21T04:28:28.225Z,-4.13
2023-01-21T04:29:28.320Z,-4.13
2023-01-21T04:30:28.430Z,-4.13
2023-01-21T04:31:28.617Z,-4.13
2023-01-21T04:32:28.657Z,-4.13
2023-01-21T04:33:28.766Z,-4.13
2023-01-21T04:34:28.893Z,-4.12
2023-01-21T04:35:28.983Z,-4.12
2023-01-21T04:36:29.129Z,-4.12
2023-01-21T04:37:29.232Z,-4.12
2023-01-21T04:38:29.364Z,-4.12
2023-01-21T04:39:29.504Z,-4.13
2023-01-21T04:40:29.581Z,-4.13
2023-01-21T04:41:29.703Z,-4.13
2023-01-21T04:42:29.811Z,-4.14
2023-01-21T04:43:29.934Z,-4.15
2023-01-21T04:44:30.023Z,-4.16
2023-01-21T04:45:30.136Z,-4.16
2023-01-21T04:46:30.257Z,-4.17
2023-01-21T04:47:30.357Z,-4.17
2023-01-21T04:48:30.459Z,-4.17
2023-01-21T04:49:30.615Z,-4.17
2023-01-21T04:50:30.670Z,-4.17
2023-01-21T04:51:30.807Z,-4.16
2023-01-21T04:52:30.933Z,-4.16
2023-01-21T04:53:31.047Z,-4.17
2023-01-21T04:54:31.147Z,-4.17
2023-01-21T04:55:31.269Z,-4.18
2023-01-21T04:56:31.392Z,-4.18
2023-01-21T04:57:31.467Z,-4.19
2023-01-21T04:58:31.638Z,-4.20
2023-01-21T04:59:31.704Z,-4.22
2023-01-21T05:00:31.808Z,-4.23
2023-01-21T05:01:32.028Z,-4.26
2023-01-21T05:02:32.184Z,-4.28
2023-01-21T05:03:32.165Z,-4.29
2023-01-21T05:04:32.289Z,-4.30
2023-01-21T05:05:32.392Z,-4.31
2023-01-21T05:06:32.542Z,-4.32
2023-01-21T05:07:32.680Z,-4.33
2023-01-21T05:08:32.700Z,-4.34
2023-01-21T05:09:32.828Z,-4.36
2023-01-21T05:10:32.925Z,-4.39
2023-01-21T05:11:33.033Z,-4.41
2023-01-21T05:12:33.131Z,-4.42
2023-01-21T05:13:34.830Z,-4.43
2023-01-21T05:14:33.410Z,-4.44
2023-01-21T05:15:33.562Z,-4.44
2023-01-21T05:16:33.676Z,-4.43
2023-01-21T05:17:33.730Z,-4.43
2023-01-21T05:18:33.838Z,-4.43
2023-01-21T05:19:33.974Z,-4.43
2023-01-21T05:20:34.063Z,-4.43
2023-01-21T05:21:34.276Z,-4.44
2023-01-21T05:22:34.283Z,-4.45
2023-01-21T05:23:34.441Z,-4.45
2023-01-21T05:24:34.528Z,-4.46
2023-01-21T05:25:34.642Z,-4.47
2023-01-21T05:26:34.779Z,-4.49
2023-01-21T05:27:34.905Z,-4.50
2023-01-21T05:28:34.997Z,-4.51
2023-01-21T05:29:35.106Z,-4.51
2023-01-21T05:30:35.323Z,-4.53
2023-01-21T05:31:35.486Z,-4.55
2023-01-21T05:32:35.495Z,-4.56
2023-01-21T05:33:35.545Z,-4.57
2023-01-21T05:34:35.644Z,-4.58
2023-01-21T05:35:35.841Z,-4.59
2023-01-21T05:36:35.910Z,-4.59
2023-01-21T05:37:36.021Z,-4.59
2023-01-21T05:38:36.179Z,-4.60
2023-01-21T05:39:36.226Z,-4.61
2023-01-21T05:40:37.901Z,-4.61
2023-01-21T05:41:36.478Z,-4.62
2023-01-21T05:42:36.594Z,-4.65
2023-01-21T05:43:36.690Z,-4.69
2023-01-21T05:44:36.808Z,-4.74
2023-01-21T05:45:36.929Z,-4.79
2023-01-21T05:46:37.031Z,-4.82
2023-01-21T05:47:37.160Z,-4.83
2023-01-21T05:48:37.256Z,-4.84
2023-01-21T05:49:37.399Z,-4.85
2023-01-21T05:50:37.523Z,-4.85
2023-01-21T05:51:37.696Z,-4.85
2023-01-21T05:52:37.828Z,-4.84
2023-01-21T05:53:37.875Z,-4.82
2023-01-21T05:54:39.331Z,-4.80
2023-01-21T05:55:38.132Z,-4.78
2023-01-21T05:56:38.226Z,-4.76
2023-01-21T05:57:38.367Z,-4.74
2023-01-21T05:58:38.467Z,-4.73
2023-01-21T05:59:38.582Z,-4.72
2023-01-21T06:00:38.689Z,-4.71
2023-01-21T06:01:38.864Z,-4.70
2023-01-21T06:02:38.952Z,-4.68
2023-01-21T06:03:39.175Z,-4.66
2023-01-21T06:04:39.136Z,-4.65
2023-01-21T06:05:39.237Z,-4.65
2023-01-21T06:06:39.372Z,-4.63
2023-01-21T06:07:39.530Z,-4.63
2023-01-21T06:08:39.590Z,-4.63
2023-01-21T06:09:39.702Z,-4.64
2023-01-21T06:10:39.886Z,-4.64
2023-01-21T06:11:39.967Z,-4.65
2023-01-21T06:12:40.099Z,-4.65
2023-01-21T06:13:40.237Z,-4.65
2023-01-21T06:14:40.298Z,-4.64
2023-01-21T06:15:50.517Z,-4.63
2023-01-21T06:16:40.556Z,-4.63
2023-01-21T06:17:40.745Z,-4.62
2023-01-21T06:18:40.790Z,-4.62
2023-01-21T06:19:47.961Z,-4.61
2023-01-21T06:20:41.073Z,-4.60
2023-01-21T06:21:48.803Z,-4.60
2023-01-21T06:22:53.488Z,-4.61
2023-01-21T06:23:49.355Z,-4.63
2023-01-21T06:24:41.573Z,-4.65
2023-01-21T06:25:49.621Z,-4.67
2023-01-21T06:26:49.162Z,-4.67
2023-01-21T06:27:41.980Z,-4.68
2023-01-21T06:28:50.326Z,-4.68
2023-01-21T06:29:55.883Z,-4.68
2023-01-21T06:30:42.378Z,-4.68
2023-01-21T06:31:42.570Z,-4.69
2023-01-21T06:32:42.659Z,-4.68
2023-01-21T06:33:42.763Z,-4.67
2023-01-21T06:34:44.160Z,-4.66
2023-01-21T06:35:50.936Z,-4.66
2023-01-21T06:36:43.161Z,-4.67
2023-01-21T06:37:43.331Z,-4.68
2023-01-21T06:38:50.741Z,-4.68
2023-01-21T06:39:43.528Z,-4.70
2023-01-21T06:40:43.654Z,-4.72
2023-01-21T06:41:43.773Z,-4.75
2023-01-21T06:42:52.439Z,-4.78
2023-01-21T06:43:51.364Z,-4.81
2023-01-21T06:44:51.176Z,-4.85
2023-01-21T06:45:51.894Z,-4.88
2023-01-21T06:47:00.796Z,-4.92
2023-01-21T06:47:45.590Z,-4.94
2023-01-21T06:48:44.747Z,-4.95
2023-01-21T06:49:44.839Z,-4.94
2023-01-21T06:50:44.989Z,-4.93
2023-01-21T06:51:52.399Z,-4.92
2023-01-21T06:52:52.239Z,-4.92
2023-01-21T06:53:45.369Z,-4.92
2023-01-21T06:54:45.465Z,-4.91
2023-01-21T06:55:45.609Z,-4.91
2023-01-21T06:56:45.739Z,-4.90
2023-01-21T06:57:45.899Z,-4.89
2023-01-21T06:58:46.031Z,-4.90
2023-01-21T06:59:46.169Z,-4.90
2023-01-21T07:00:46.236Z,-4.92
2023-01-21T07:01:46.422Z,-4.93
2023-01-21T07:02:46.522Z,-4.95
2023-01-21T07:03:46.719Z,-4.96
2023-01-21T07:04:46.781Z,-4.96
2023-01-21T07:05:46.876Z,-4.95
2023-01-21T07:06:47.033Z,-4.94
2023-01-21T07:07:47.771Z,-4.94
2023-01-21T07:08:47.332Z,-4.94
2023-01-21T07:09:47.465Z,-4.95
2023-01-21T07:10:47.936Z,-4.95
2023-01-21T07:11:47.723Z,-4.95
2023-01-21T07:12:47.873Z,-4.95
2023-01-21T07:13:47.996Z,-4.94
2023-01-21T07:14:48.192Z,-4.95
2023-01-21T07:15:48.354Z,-4.95
2023-01-21T07:16:48.362Z,-4.96
2023-01-21T07:17:48.500Z,-4.96
2023-01-21T07:18:48.633Z,-4.97
2023-01-21T07:19:48.821Z,-4.97
2023-01-21T07:20:48.891Z,-4.98
2023-01-21T07:21:49.030Z,-4.99
2023-01-21T07:22:49.162Z,-5.00
2023-01-21T07:23:49.289Z,-5.01
2023-01-21T07:24:49.496Z,-5.04
2023-01-21T07:25:49.583Z,-5.08
2023-01-21T07:26:49.702Z,-5.10
2023-01-21T07:27:49.835Z,-5.11
2023-01-21T07:28:49.924Z,-5.13
2023-01-21T07:29:50.055Z,-5.15
2023-01-21T07:30:50.266Z,-5.17
2023-01-21T07:31:50.315Z,-5.18
2023-01-21T07:32:50.442Z,-5.21
2023-01-21T07:33:50.464Z,-5.25
2023-01-21T07:34:50.625Z,-5.29
2023-01-21T07:35:50.685Z,-5.31
2023-01-21T07:36:50.793Z,-5.30
2023-01-21T07:37:50.915Z,-5.28
2023-01-21T07:38:51.038Z,-5.26
2023-01-21T07:39:53.076Z,-5.24
2023-01-21T07:40:51.311Z,-5.22
2023-01-21T07:41:51.361Z,-5.20
2023-01-21T07:42:51.471Z,-5.18
2023-01-21T07:43:51.595Z,-5.15
2023-01-21T07:44:51.740Z,-5.13
2023-01-21T07:45:51.834Z,-5.11
2023-01-21T07:46:51.994Z,-5.10
2023-01-21T07:47:52.019Z,-5.11
2023-01-21T07:48:52.160Z,-5.13
2023-01-21T07:49:52.308Z,-5.15
2023-01-21T07:50:52.397Z,-5.15
2023-01-21T07:51:52.467Z,-5.14
2023-01-21T07:52:52.591Z,-5.13
2023-01-21T07:53:52.735Z,-5.12
2023-01-21T07:54:52.868Z,-5.11
2023-01-21T07:55:52.929Z,-5.10
2023-01-21T07:56:53.026Z,-5.09
2023-01-21T07:57:53.137Z,-5.09
2023-01-21T07:58:53.250Z,-5.08
2023-01-21T07:59:55.991Z,-5.06
2023-01-21T08:00:53.493Z,-5.06
2023-01-21T08:01:53.696Z,-5.05
2023-01-21T08:02:53.731Z,-5.04
2023-01-21T08:03:53.850Z,-5.03
2023-01-21T08:04:53.972Z,-5.02
2023-01-21T08:05:54.132Z,-5.01
2023-01-21T08:06:54.150Z,-5.00
2023-01-21T08:07:54.534Z,-5.00
2023-01-21T08:08:54.379Z,-5.01
2023-01-21T08:09:54.538Z,-5.03
2023-01-21T08:10:54.593Z,-5.07
2023-01-21T08:11:54.699Z,-5.10
2023-01-21T08:12:54.809Z,-5.12
2023-01-21T08:13:55.003Z,-5.13
2023-01-21T08:14:55.046Z,-5.14
2023-01-21T08:15:55.233Z,-5.16
2023-01-21T08:16:55.248Z,-5.19
2023-01-21T08:17:55.390Z,-5.23
2023-01-21T08:18:55.512Z,-5.28
2023-01-21T08:19:55.662Z,-5.33
2023-01-21T08:20:55.699Z,-5.36
2023-01-21T08:21:56.193Z,-5.37
2023-01-21T08:22:55.936Z,-5.39
2023-01-21T08:23:56.131Z,-5.40
2023-01-21T08:25:06.344Z,-5.42
2023-01-21T08:26:03.620Z,-5.45
2023-01-21T08:27:05.350Z,-5.46
2023-01-21T08:27:56.523Z,-5.47
2023-01-21T08:29:05.904Z,-5.45
2023-01-21T08:31:21.817Z,-4.34
2023-01-21T08:32:21.916Z,-4.79
2023-01-21T08:34:46.570Z,-4.21
2023-01-21T08:35:56.060Z,-4.65
2023-01-21T08:41:08.399Z,-4.17
2023-01-21T08:42:16.796Z,-4.60
2023-01-21T08:43:16.631Z,-4.82
2023-01-21T08:44:16.369Z,-4.91
2023-01-21T08:46:31.397Z,-3.85
2023-01-21T08:47:38.524Z,-4.30
2023-01-21T08:48:31.627Z,-4.54
2023-01-21T08:51:00.699Z,-3.71
2023-01-21T08:53:24.565Z,-3.69
2023-01-21T08:54:32.314Z,-4.13
2023-01-21T08:55:35.343Z,-4.37
2023-01-21T08:56:36.529Z,-4.48
2023-01-21T08:57:32.368Z,-4.52
2023-01-21T08:58:34.783Z,-4.52
2023-01-21T08:59:32.280Z,-4.49
2023-01-21T09:00:34.739Z,-4.47
2023-01-21T09:01:36.391Z,-4.45
2023-01-21T09:02:32.703Z,-4.45
2023-01-21T09:03:25.793Z,-4.47
2023-01-21T09:05:55.059Z,-3.54
2023-01-21T09:07:05.707Z,-3.99
2023-01-21T09:09:17.814Z,-3.47
2023-01-21T09:11:54.064Z,-3.48
2023-01-21T09:12:54.185Z,-3.92
2023-01-21T09:14:03.133Z,-4.15
2023-01-21T09:14:54.421Z,-4.25
2023-01-21T09:16:05.395Z,-4.28
2023-01-21T09:16:54.695Z,-4.28
2023-01-21T09:18:03.324Z,-4.25
2023-01-21T09:19:04.159Z,-4.23
2023-01-21T09:20:04.184Z,-4.21
2023-01-21T09:22:18.781Z,-3.16
2023-01-21T09:23:27.927Z,-3.61
2023-01-21T09:24:29.034Z,-3.87
2023-01-21T09:25:27.718Z,-3.99
2023-01-21T09:26:28.676Z,-4.05
2023-01-21T09:27:19.430Z,-4.07
2023-01-21T09:28:35.204Z,-4.06
2023-01-21T09:29:28.690Z,-4.04
2023-01-21T09:30:19.775Z,-4.01
2023-01-21T09:31:27.950Z,-3.98
2023-01-21T09:34:27.031Z,-2.89
2023-01-21T09:35:27.162Z,-3.33
2023-01-21T09:37:50.817Z,-2.69
2023-01-21T09:40:16.776Z,-2.60
2023-01-21T09:41:24.935Z,-3.04
2023-01-21T09:42:24.334Z,-3.28
2023-01-21T09:43:17.213Z,-3.38
2023-01-21T09:45:54.614Z,-2.42
2023-01-21T09:46:54.702Z,-2.86
2023-01-21T09:47:54.867Z,-3.11
2023-01-21T09:48:54.971Z,-3.24
2023-01-21T09:50:03.165Z,-3.30
2023-01-21T09:50:55.245Z,-3.33
2023-01-21T09:53:19.178Z,-2.34
2023-01-21T09:54:27.420Z,-2.79
2023-01-21T09:55:19.826Z,-3.07
2023-01-21T09:56:19.575Z,-3.22
2023-01-21T09:57:29.039Z,-3.29
2023-01-21T09:58:19.874Z,-3.31
2023-01-21T09:59:31.716Z,-3.32
2023-01-21T10:00:20.105Z,-3.32
2023-01-21T10:03:06.758Z,-2.39
2023-01-21T10:04:06.917Z,-2.85
2023-01-21T10:05:16.568Z,-3.10
2023-01-21T10:07:41.902Z,-2.38
2023-01-21T10:08:42.091Z,-2.83
2023-01-21T10:09:42.159Z,-3.07
2023-01-21T10:10:42.270Z,-3.17
2023-01-21T10:11:49.411Z,-3.19
2023-01-21T10:12:54.356Z,-3.19
2023-01-21T10:13:42.659Z,-3.18
2023-01-21T10:14:42.778Z,-3.15
2023-01-21T10:17:06.704Z,-2.06
2023-01-21T10:18:20.055Z,-2.51
2023-01-21T10:19:14.985Z,-2.79
2023-01-21T10:21:33.939Z,-2.03
2023-01-21T10:22:34.064Z,-2.46
2023-01-21T10:23:34.192Z,-2.69
2023-01-21T10:24:34.311Z,-2.79
2023-01-21T10:25:41.485Z,-2.81
2023-01-21T10:26:34.571Z,-2.84
2023-01-21T10:27:34.687Z,-2.85
2023-01-21T10:28:34.828Z,-2.83
2023-01-21T10:29:34.948Z,-2.79
2023-01-21T10:30:35.201Z,-2.74
2023-01-21T10:31:42.972Z,-2.70
2023-01-21T10:32:35.340Z,-2.66
2023-01-21T10:33:35.476Z,-2.64
2023-01-21T10:34:35.588Z,-2.63
2023-01-21T10:35:35.716Z,-2.61
2023-01-21T10:36:42.829Z,-2.58
2023-01-21T10:37:44.935Z,-2.56
2023-01-21T10:38:36.033Z,-2.54
2023-01-21T10:39:43.134Z,-2.56
2023-01-21T10:40:36.282Z,-2.62
2023-01-21T10:41:36.380Z,-2.64
2023-01-21T10:42:36.467Z,-2.64
2023-01-21T10:43:36.631Z,-2.63
2023-01-21T10:44:36.692Z,-2.61
2023-01-21T10:45:45.140Z,-2.60
2023-01-21T10:46:36.898Z,-2.58
2023-01-21T10:47:46.047Z,-2.55
2023-01-21T10:48:37.154Z,-2.53
2023-01-21T10:49:45.800Z,-2.53
2023-01-21T10:50:37.345Z,-2.54
2023-01-21T10:51:37.493Z,-2.55
2023-01-21T10:52:37.642Z,-2.54
2023-01-21T10:53:37.756Z,-2.51
2023-01-21T10:54:47.891Z,-2.48
2023-01-21T10:55:37.957Z,-2.45
2023-01-21T10:56:38.071Z,-2.42
2023-01-21T10:57:38.167Z,-2.40
2023-01-21T10:58:38.320Z,-2.39
2023-01-21T10:59:38.437Z,-2.39
2023-01-21T11:00:38.538Z,-2.39
2023-01-21T11:01:38.655Z,-2.38
2023-01-21T11:02:38.841Z,-2.36
2023-01-21T11:03:38.967Z,-2.32
2023-01-21T11:04:38.997Z,-2.28
2023-01-21T11:05:39.086Z,-2.24
2023-01-21T11:06:39.191Z,-2.20
2023-01-21T11:07:39.304Z,-2.16
2023-01-21T11:08:39.469Z,-2.12
2023-01-21T11:09:39.521Z,-2.08
2023-01-21T11:10:39.628Z,-2.05
2023-01-21T11:11:39.709Z,-2.02
2023-01-21T11:12:39.816Z,-2.00
2023-01-21T11:13:40.010Z,-1.97
2023-01-21T11:14:40.121Z,-1.94
2023-01-21T11:15:40.252Z,-1.92
2023-01-21T11:16:40.328Z,-1.91
2023-01-21T11:17:40.467Z,-1.91
2023-01-21T11:18:40.581Z,-1.93
2023-01-21T11:19:40.691Z,-1.94
2023-01-21T11:20:40.790Z,-1.94
2023-01-21T11:21:40.885Z,-1.93
2023-01-21T11:22:40.985Z,-1.91
2023-01-21T11:23:41.108Z,-1.89
2023-01-21T11:24:41.219Z,-1.86
2023-01-21T11:25:41.315Z,-1.85
2023-01-21T11:26:41.436Z,-1.84
2023-01-21T11:27:41.536Z,-1.83
2023-01-21T11:28:41.664Z,-1.82
2023-01-21T11:29:41.753Z,-1.82
2023-01-21T11:30:51.187Z,-1.82
2023-01-21T11:31:43.061Z,-1.83
2023-01-21T11:32:42.075Z,-1.83
2023-01-21T11:33:42.232Z,-1.82
2023-01-21T11:34:42.275Z,-1.80
2023-01-21T11:35:42.391Z,-1.78
2023-01-21T11:36:42.511Z,-1.76
2023-01-21T11:37:42.601Z,-1.73
2023-01-21T11:38:42.752Z,-1.71
2023-01-21T11:39:42.807Z,-1.72
2023-01-21T11:40:42.924Z,-1.74
2023-01-21T11:41:43.027Z,-1.74
2023-01-21T11:42:43.140Z,-1.73
2023-01-21T11:43:43.259Z,-1.71
2023-01-21T11:44:43.350Z,-1.69
2023-01-21T11:45:43.458Z,-1.68
2023-01-21T11:46:43.567Z,-1.68
2023-01-21T11:47:43.668Z,-1.68
2023-01-21T11:48:43.840Z,-1.68
2023-01-21T11:49:43.876Z,-1.68
2023-01-21T11:50:43.997Z,-1.67
2023-01-21T11:51:44.107Z,-1.65
2023-01-21T11:52:44.200Z,-1.62
2023-01-21T11:53:44.369Z,-1.59
2023-01-21T11:54:44.424Z,-1.57
2023-01-21T11:55:44.520Z,-1.56
2023-01-21T11:56:44.632Z,-1.57
2023-01-21T11:57:44.735Z,-1.57
2023-01-21T11:58:44.860Z,-1.57
2023-01-21T11:59:44.982Z,-1.56
2023-01-21T12:00:45.055Z,-1.55
2023-01-21T12:01:45.182Z,-1.54
2023-01-21T12:02:45.302Z,-1.53
2023-01-21T12:03:45.467Z,-1.52
2023-01-21T12:04:45.561Z,-1.52
2023-01-21T12:05:45.676Z,-1.52
2023-01-21T12:06:45.766Z,-1.52
2023-01-21T12:07:45.861Z,-1.51
2023-01-21T12:08:46.065Z,-1.49
2023-01-21T12:09:46.131Z,-1.47
2023-01-21T12:10:46.232Z,-1.47
2023-01-21T12:11:46.347Z,-1.46
2023-01-21T12:12:46.436Z,-1.44
2023-01-21T12:13:46.656Z,-1.43
2023-01-21T12:14:46.648Z,-1.43
2023-01-21T12:15:46.789Z,-1.42
2023-01-21T12:16:46.878Z,-1.41
2023-01-21T12:17:46.989Z,-1.41
2023-01-21T12:18:47.161Z,-1.41
2023-01-21T12:19:47.200Z,-1.41
2023-01-21T12:20:47.309Z,-1.40
2023-01-21T12:21:47.397Z,-1.39
2023-01-21T12:22:47.556Z,-1.38
2023-01-21T12:23:47.761Z,-1.38
2023-01-21T12:24:47.889Z,-1.38
2023-01-21T12:25:47.933Z,-1.37
2023-01-21T12:26:48.054Z,-1.36
2023-01-21T12:27:48.141Z,-1.34
2023-01-21T12:28:48.283Z,-1.32
2023-01-21T12:29:48.377Z,-1.30
2023-01-21T12:30:48.546Z,-1.29
2023-01-21T12:31:48.718Z,-1.27
2023-01-21T12:32:48.775Z,-1.25
2023-01-21T12:33:48.905Z,-1.22
2023-01-21T12:34:49.023Z,-1.20
2023-01-21T12:35:49.122Z,-1.18
2023-01-21T12:36:49.223Z,-1.16
2023-01-21T12:37:49.372Z,-1.16
2023-01-21T12:38:49.511Z,-1.15
2023-01-21T12:39:49.551Z,-1.14
2023-01-21T12:40:49.667Z,-1.12
2023-01-21T12:41:49.774Z,-1.10
2023-01-21T12:42:49.879Z,-1.07
2023-01-21T12:43:50.031Z,-1.07
2023-01-21T12:44:50.095Z,-1.10
2023-01-21T12:45:50.201Z,-1.11
2023-01-21T12:46:50.379Z,-1.10
2023-01-21T12:47:50.499Z,-1.09
2023-01-21T12:48:50.539Z,-1.07
2023-01-21T12:49:50.618Z,-1.06
2023-01-21T12:50:50.760Z,-1.06
2023-01-21T12:51:50.849Z,-1.06
2023-01-21T12:52:50.981Z,-1.05
2023-01-21T12:53:51.080Z,-1.03
2023-01-21T12:54:51.176Z,-1.01
2023-01-21T12:55:51.298Z,-0.98
2023-01-21T12:56:51.392Z,-0.95
2023-01-21T12:57:51.489Z,-0.92
2023-01-21T12:58:51.634Z,-0.90
2023-01-21T12:59:51.745Z,-0.87
2023-01-21T13:00:51.855Z,-0.84
2023-01-21T13:01:51.969Z,-0.81
2023-01-21T13:02:52.046Z,-0.79
2023-01-21T13:03:52.209Z,-0.77
2023-01-21T13:04:52.292Z,-0.75
2023-01-21T13:05:52.410Z,-0.73
2023-01-21T13:06:54.499Z,-0.70
2023-01-21T13:07:52.621Z,-0.70
2023-01-21T13:08:52.824Z,-0.70
2023-01-21T13:09:52.872Z,-0.69
2023-01-21T13:10:52.963Z,-0.68
2023-01-21T13:11:53.127Z,-0.65
2023-01-21T13:12:53.229Z,-0.62
2023-01-21T13:13:53.405Z,-0.60
2023-01-21T13:14:53.450Z,-0.57
2023-01-21T13:15:53.595Z,-0.55
2023-01-21T13:16:53.658Z,-0.52
2023-01-21T13:17:53.822Z,-0.49
2023-01-21T13:18:53.974Z,-0.46
2023-01-21T13:19:54.068Z,-0.43
2023-01-21T13:20:54.169Z,-0.40
2023-01-21T13:21:54.290Z,-0.39
2023-01-21T13:22:54.388Z,-0.37
2023-01-21T13:23:54.631Z,-0.35
2023-01-21T13:24:54.619Z,-0.33
2023-01-21T13:25:54.716Z,-0.32